createdAt,value
2019-03-11T00:00:39.308Z,5.23
2019-03-11T00:03:06.031Z,5.13
2019-03-11T00:05:32.197Z,5.57
2019-03-11T00:07:58.422Z,6.03
2019-03-11T00:10:24.695Z,5.60
2019-03-11T00:12:50.950Z,5.73
2019-03-11T00:15:17.076Z,5.00
2019-03-11T00:17:43.388Z,5.70
2019-03-11T00:20:09.703Z,5.13
2019-03-11T00:22:35.990Z,5.20
2019-03-11T00:25:03.320Z,5.17
2019-03-11T00:27:29.534Z,5.63
2019-03-11T00:29:55.644Z,5.37
2019-03-11T00:32:21.777Z,5.23
2019-03-11T00:34:47.874Z,4.80
2019-03-11T00:37:14.073Z,4.10
2019-03-11T00:39:40.245Z,4.30
2019-03-11T00:42:06.713Z,4.93
2019-03-11T00:44:32.864Z,4.80
2019-03-11T00:46:59.123Z,5.33
2019-03-11T00:49:25.228Z,4.00
2019-03-11T00:51:51.354Z,4.83
2019-03-11T00:54:17.565Z,4.53
2019-03-11T00:56:43.805Z,5.27
2019-03-11T00:59:09.919Z,4.43
2019-03-11T01:01:36.167Z,4.23
2019-03-11T01:04:02.504Z,4.33
2019-03-11T01:06:28.590Z,4.10
2019-03-11T01:08:54.824Z,4.80
2019-03-11T01:11:21.017Z,5.70
2019-03-11T01:13:47.113Z,5.40
2019-03-11T01:16:13.327Z,5.13
2019-03-11T01:18:39.432Z,5.57
2019-03-11T01:21:05.585Z,5.80
2019-03-11T01:23:31.752Z,6.07
2019-03-11T01:25:57.893Z,5.80
2019-03-11T01:28:24.131Z,4.87
2019-03-11T01:30:50.204Z,4.50
2019-03-11T01:33:16.372Z,4.87
2019-03-11T01:35:42.774Z,5.67
2019-03-11T01:38:09.005Z,4.63
2019-03-11T01:40:35.306Z,4.50
2019-03-11T01:43:01.474Z,5.43
2019-03-11T01:45:27.707Z,4.97
2019-03-11T01:47:53.832Z,4.33
2019-03-11T01:50:20.062Z,5.00
2019-03-11T01:52:46.225Z,5.50
2019-03-11T01:55:12.955Z,5.97
2019-03-11T01:57:39.184Z,5.73
2019-03-11T02:00:08.792Z,6.20
2019-03-11T02:02:35.031Z,6.60
2019-03-11T02:05:01.275Z,6.80
2019-03-11T02:07:27.374Z,5.17
2019-03-11T02:09:53.617Z,5.47
2019-03-11T02:12:19.847Z,5.07
2019-03-11T02:14:46.043Z,5.00
2019-03-11T02:17:12.110Z,4.73
2019-03-11T02:19:38.280Z,4.93
2019-03-11T02:22:04.460Z,3.87
2019-03-11T02:24:30.581Z,3.97
2019-03-11T02:26:56.909Z,4.90
2019-03-11T02:29:23.308Z,5.03
2019-03-11T02:31:49.532Z,5.77
2019-03-11T02:34:15.665Z,6.77
2019-03-11T02:36:41.747Z,7.17
2019-03-11T02:39:08.420Z,6.70
2019-03-11T02:41:34.724Z,7.33
2019-03-11T02:44:01.059Z,8.07
2019-03-11T02:46:27.331Z,8.17
2019-03-11T02:48:53.514Z,7.27
2019-03-11T02:51:19.596Z,7.17
2019-03-11T02:53:45.735Z,6.87
2019-03-11T02:56:11.851Z,8.17
2019-03-11T02:58:38.269Z,6.83
2019-03-11T03:01:23.197Z,8.97
2019-03-11T03:04:07.761Z,7.20
2019-03-11T03:06:34.087Z,7.33
2019-03-11T03:09:00.374Z,7.57
2019-03-11T03:11:26.613Z,8.10
2019-03-11T03:13:52.742Z,9.00
2019-03-11T03:16:19.148Z,9.57
2019-03-11T03:18:45.383Z,9.43
2019-03-11T03:21:11.512Z,9.77
2019-03-11T03:23:37.747Z,9.47
2019-03-11T03:26:03.942Z,10.37
2019-03-11T03:28:30.013Z,9.13
2019-03-11T03:30:56.134Z,8.90
2019-03-11T03:33:22.264Z,8.70
2019-03-11T03:35:48.461Z,7.50
2019-03-11T03:38:28.878Z,7.87
2019-03-11T03:40:42.723Z,7.13
2019-03-11T03:43:09.214Z,6.77
2019-03-11T03:45:38.363Z,6.80
2019-03-11T03:48:04.691Z,6.20
2019-03-11T03:50:38.207Z,6.70
2019-03-11T03:53:04.902Z,6.70
2019-03-11T03:55:32.316Z,6.00
2019-03-11T03:57:58.627Z,7.43
2019-03-11T04:00:24.860Z,6.90
2019-03-11T04:02:51.026Z,6.30
2019-03-11T04:05:17.116Z,7.63
2019-03-11T04:07:44.413Z,6.33
2019-03-11T04:10:16.146Z,6.70
2019-03-11T04:12:42.503Z,8.07
2019-03-11T04:15:09.763Z,7.03
2019-03-11T04:17:36.050Z,6.60
2019-03-11T04:20:05.076Z,6.70
2019-03-11T04:22:31.482Z,6.83
2019-03-11T04:24:57.819Z,6.27
2019-03-11T04:27:24.186Z,6.30
2019-03-11T04:29:50.349Z,5.80
2019-03-11T04:32:16.627Z,5.80
2019-03-11T04:34:42.894Z,5.67
2019-03-11T04:37:08.992Z,5.03
2019-03-11T04:39:35.299Z,6.17
2019-03-11T04:42:01.555Z,5.80
2019-03-11T04:44:27.746Z,5.77
2019-03-11T04:46:53.964Z,6.10
2019-03-11T04:49:20.087Z,5.97
2019-03-11T04:51:46.184Z,5.97
2019-03-11T04:54:12.582Z,5.93
2019-03-11T04:56:38.817Z,5.40
2019-03-11T04:59:11.761Z,5.07
2019-03-11T05:01:38.228Z,5.63
2019-03-11T05:04:04.361Z,5.73
2019-03-11T05:06:30.715Z,5.17
2019-03-11T05:08:57.020Z,5.57
2019-03-11T05:11:23.165Z,5.50
2019-03-11T05:13:49.284Z,5.47
2019-03-11T05:16:15.847Z,5.23
2019-03-11T05:18:42.138Z,6.13
2019-03-11T05:21:08.336Z,6.17
2019-03-11T05:23:34.553Z,3.57
2019-03-11T05:26:00.738Z,4.67
2019-03-11T05:28:27.046Z,5.13
2019-03-11T05:30:53.244Z,5.50
2019-03-11T05:33:19.450Z,5.93
2019-03-11T05:35:45.680Z,5.63
2019-03-11T05:38:11.953Z,6.67
2019-03-11T05:40:38.268Z,7.33
2019-03-11T05:43:04.472Z,7.47
2019-03-11T05:45:31.620Z,8.10
2019-03-11T05:47:57.794Z,7.90
2019-03-11T05:50:23.928Z,6.00
2019-03-11T05:52:50.345Z,8.07
2019-03-11T05:55:17.421Z,7.87
2019-03-11T05:57:43.838Z,7.27
2019-03-11T06:00:25.002Z,6.93
2019-03-11T06:02:53.230Z,7.50
2019-03-11T06:05:19.660Z,6.43
2019-03-11T06:07:45.833Z,5.90
2019-03-11T06:10:13.571Z,5.83
2019-03-11T06:12:39.886Z,5.47
2019-03-11T06:15:11.259Z,5.83
2019-03-11T06:17:37.514Z,6.20
2019-03-11T06:20:25.707Z,6.17
2019-03-11T06:22:51.784Z,5.90
2019-03-11T06:25:17.943Z,6.07
2019-03-11T06:27:44.050Z,5.67
2019-03-11T06:30:10.842Z,6.47
2019-03-11T06:32:37.078Z,6.67
2019-03-11T06:35:03.989Z,6.40
2019-03-11T06:37:30.219Z,6.83
2019-03-11T06:39:56.382Z,6.77
2019-03-11T06:42:22.608Z,8.53
2019-03-11T06:44:48.746Z,7.00
2019-03-11T06:47:15.003Z,7.27
2019-03-11T06:49:41.253Z,7.53
2019-03-11T06:52:07.489Z,8.13
2019-03-11T06:54:33.715Z,8.43
2019-03-11T06:56:59.933Z,10.23
2019-03-11T06:59:26.066Z,8.63
2019-03-11T07:01:54.110Z,7.43
2019-03-11T07:04:20.253Z,6.20
2019-03-11T07:06:46.429Z,6.13
2019-03-11T07:09:12.803Z,5.83
2019-03-11T07:11:39.152Z,5.73
2019-03-11T07:14:05.416Z,6.10
2019-03-11T07:16:31.700Z,5.30
2019-03-11T07:18:57.865Z,6.60
2019-03-11T07:21:23.960Z,5.63
2019-03-11T07:23:50.094Z,5.83
2019-03-11T07:26:16.334Z,7.20
2019-03-11T07:28:42.516Z,5.90
2019-03-11T07:31:09.928Z,6.70
2019-03-11T07:33:36.077Z,7.27
2019-03-11T07:36:02.455Z,6.07
2019-03-11T07:38:28.679Z,5.67
2019-03-11T07:40:54.830Z,6.10
2019-03-11T07:43:20.940Z,4.57
2019-03-11T07:45:47.164Z,5.53
2019-03-11T07:48:13.362Z,6.47
2019-03-11T07:50:39.609Z,5.83
2019-03-11T07:53:06.254Z,6.57
2019-03-11T07:55:32.427Z,7.80
2019-03-11T07:57:58.617Z,5.53
2019-03-11T08:00:26.209Z,6.50
2019-03-11T08:02:52.575Z,6.67
2019-03-11T08:05:18.819Z,6.53
2019-03-11T08:07:45.075Z,6.83
2019-03-11T08:10:24.075Z,7.07
2019-03-11T08:12:50.485Z,8.00
2019-03-11T08:15:16.652Z,8.10
2019-03-11T08:17:43.079Z,9.70
2019-03-11T08:20:10.504Z,10.00
2019-03-11T08:22:36.861Z,9.60
2019-03-11T08:25:05.281Z,9.97
2019-03-11T08:27:32.606Z,9.17
2019-03-11T08:29:59.636Z,10.57
2019-03-11T08:32:27.134Z,9.80
2019-03-11T08:34:53.242Z,10.33
2019-03-11T08:37:19.664Z,10.13
2019-03-11T08:39:45.874Z,10.37
2019-03-11T08:42:12.210Z,8.97
2019-03-11T08:44:38.432Z,9.73
2019-03-11T08:47:04.705Z,7.70
2019-03-11T08:49:30.811Z,7.60
2019-03-11T08:51:56.910Z,7.60
2019-03-11T08:54:24.157Z,6.03
2019-03-11T08:56:50.374Z,7.30
2019-03-11T08:59:16.791Z,6.50
2019-03-11T09:01:42.986Z,5.70
2019-03-11T09:04:09.210Z,6.20
2019-03-11T09:06:35.437Z,6.00
2019-03-11T09:09:01.763Z,6.33
2019-03-11T09:11:29.803Z,5.10
2019-03-11T09:13:56.207Z,7.67
2019-03-11T09:16:22.552Z,6.13
2019-03-11T09:18:49.021Z,7.87
2019-03-11T09:21:15.140Z,6.90
2019-03-11T09:23:41.262Z,8.33
2019-03-11T09:26:07.384Z,8.63
2019-03-11T09:28:33.727Z,8.13
2019-03-11T09:31:00.190Z,9.10
2019-03-11T09:33:26.616Z,9.07
2019-03-11T09:35:52.924Z,9.63
2019-03-11T09:38:19.242Z,10.77
2019-03-11T09:40:45.545Z,10.70
2019-03-11T09:43:11.791Z,9.17
2019-03-11T09:45:38.024Z,11.17
2019-03-11T09:48:04.107Z,11.10
2019-03-11T09:50:30.464Z,12.20
2019-03-11T09:52:56.679Z,12.00
2019-03-11T09:55:24.587Z,11.60
2019-03-11T09:57:50.854Z,12.57
2019-03-11T10:00:31.004Z,13.50
2019-03-11T10:02:57.239Z,12.60
2019-03-11T10:05:23.583Z,12.40
2019-03-11T10:07:49.968Z,13.43
2019-03-11T10:10:21.337Z,12.70
2019-03-11T10:12:47.566Z,9.17
2019-03-11T10:15:18.867Z,11.30
2019-03-11T10:17:45.525Z,10.77
2019-03-11T10:20:15.181Z,6.87
2019-03-11T10:22:41.499Z,7.97
2019-03-11T10:25:08.743Z,8.63
2019-03-11T10:27:35.193Z,7.03
2019-03-11T10:30:01.530Z,7.90
2019-03-11T10:32:28.078Z,8.67
2019-03-11T10:34:54.320Z,7.93
2019-03-11T10:37:20.537Z,9.47
2019-03-11T10:39:47.903Z,9.80
2019-03-11T10:42:14.376Z,9.40
2019-03-11T10:44:40.560Z,9.77
2019-03-11T10:47:06.852Z,9.10
2019-03-11T10:49:32.993Z,8.13
2019-03-11T10:51:59.252Z,10.23
2019-03-11T10:54:25.469Z,9.07
2019-03-11T10:56:51.915Z,9.83
2019-03-11T10:59:18.106Z,10.03
2019-03-11T11:01:44.405Z,8.70
2019-03-11T11:04:10.587Z,6.33
2019-03-11T11:06:36.937Z,7.13
2019-03-11T11:09:04.943Z,7.40
2019-03-11T11:11:32.605Z,7.63
2019-03-11T11:13:58.904Z,6.50
2019-03-11T11:16:25.148Z,7.17
2019-03-11T11:18:51.339Z,6.33
2019-03-11T11:21:17.631Z,6.13
2019-03-11T11:23:43.846Z,5.43
2019-03-11T11:26:10.108Z,5.20
2019-03-11T11:28:36.336Z,5.60
2019-03-11T11:31:03.154Z,6.10
2019-03-11T11:33:29.461Z,4.83
2019-03-11T11:35:56.768Z,6.00
2019-03-11T11:38:23.571Z,5.90
2019-03-11T11:40:50.330Z,4.63
2019-03-11T11:43:16.564Z,4.30
2019-03-11T11:45:42.882Z,5.83
2019-03-11T11:48:09.337Z,5.10
2019-03-11T11:50:35.557Z,4.70
2019-03-11T11:53:01.773Z,5.63
2019-03-11T11:55:28.103Z,5.70
2019-03-11T11:57:54.302Z,5.47
2019-03-11T12:00:27.776Z,5.57
2019-03-11T12:02:54.093Z,5.13
2019-03-11T12:05:21.364Z,5.00
2019-03-11T12:07:47.868Z,5.07
2019-03-11T12:10:21.927Z,4.63
2019-03-11T12:12:48.394Z,4.10
2019-03-11T12:15:14.792Z,4.70
2019-03-11T12:17:41.068Z,5.23
2019-03-11T12:20:14.945Z,4.93
2019-03-11T12:22:42.724Z,5.00
2019-03-11T12:25:10.795Z,4.50
2019-03-11T12:27:37.175Z,4.13
2019-03-11T12:30:12.753Z,4.63
2019-03-11T12:32:39.091Z,4.10
2019-03-11T12:35:07.292Z,4.87
2019-03-11T12:37:33.557Z,4.73
2019-03-11T12:39:59.835Z,3.90
2019-03-11T12:42:26.222Z,3.37
2019-03-11T12:44:53.732Z,3.30
2019-03-11T12:47:21.118Z,3.10
2019-03-11T12:49:47.336Z,2.80
2019-03-11T12:52:13.695Z,3.53
2019-03-11T12:54:39.820Z,3.43
2019-03-11T12:57:05.950Z,4.03
2019-03-11T12:59:32.271Z,4.17
2019-03-11T13:01:58.380Z,3.03
2019-03-11T13:04:24.698Z,3.20
2019-03-11T13:06:50.968Z,3.20
2019-03-11T13:09:17.181Z,3.20
2019-03-11T13:11:43.402Z,2.50
2019-03-11T13:14:09.719Z,3.70
2019-03-11T13:16:35.858Z,3.63
2019-03-11T13:19:12.439Z,3.47
2019-03-11T13:21:30.512Z,3.37
2019-03-11T13:23:56.832Z,2.83
2019-03-11T13:26:22.942Z,4.27
2019-03-11T13:28:49.047Z,3.00
2019-03-11T13:31:15.320Z,3.70
2019-03-11T13:33:41.656Z,3.50
2019-03-11T13:36:08.040Z,3.97
2019-03-11T13:38:35.701Z,4.00
2019-03-11T13:41:03.394Z,4.00
2019-03-11T13:43:29.720Z,3.83
2019-03-11T13:45:56.093Z,3.80
2019-03-11T13:48:22.390Z,3.97
2019-03-11T13:50:48.505Z,3.30
2019-03-11T13:53:14.731Z,3.70
2019-03-11T13:55:41.083Z,3.50
2019-03-11T13:58:07.474Z,2.37
2019-03-11T14:00:33.734Z,2.87
2019-03-11T14:02:59.884Z,2.40
2019-03-11T14:05:26.351Z,3.10
2019-03-11T14:07:52.578Z,2.83
2019-03-11T14:10:18.949Z,3.47
2019-03-11T14:12:45.172Z,3.20
2019-03-11T14:15:14.123Z,3.50
2019-03-11T14:17:40.460Z,3.73
2019-03-11T14:20:09.854Z,3.83
2019-03-11T14:22:36.205Z,3.10
2019-03-11T14:25:04.330Z,2.80
2019-03-11T14:27:30.858Z,2.67
2019-03-11T14:29:57.088Z,3.07
2019-03-11T14:32:23.333Z,2.47
2019-03-11T14:34:49.541Z,3.27
2019-03-11T14:37:15.687Z,2.57
2019-03-11T14:39:41.976Z,2.67
2019-03-11T14:42:08.480Z,3.07
2019-03-11T14:44:35.835Z,2.40
2019-03-11T14:47:02.210Z,2.50
2019-03-11T14:49:28.396Z,2.80
2019-03-11T14:51:54.763Z,2.70
2019-03-11T14:54:21.156Z,2.63
2019-03-11T14:56:47.285Z,3.03
2019-03-11T14:59:13.642Z,3.13
2019-03-11T15:01:39.922Z,2.70
2019-03-11T15:04:06.327Z,2.60
2019-03-11T15:06:32.643Z,2.70
2019-03-11T15:08:58.815Z,2.87
2019-03-11T15:11:25.215Z,3.40
2019-03-11T15:13:51.520Z,3.10
2019-03-11T15:16:17.778Z,2.40
2019-03-11T15:18:44.221Z,2.83
2019-03-11T15:21:10.454Z,2.67
2019-03-11T15:23:36.915Z,2.33
2019-03-11T15:26:05.609Z,3.63
2019-03-11T15:28:31.549Z,5.50
2019-03-11T15:30:57.809Z,4.70
2019-03-11T15:33:24.016Z,3.67
2019-03-11T15:35:50.176Z,3.27
2019-03-11T15:38:16.547Z,3.77
2019-03-11T15:40:42.902Z,3.37
2019-03-11T15:43:09.130Z,3.30
2019-03-11T15:45:38.899Z,2.97
2019-03-11T15:48:03.658Z,3.10
2019-03-11T15:50:32.022Z,3.00
2019-03-11T15:52:58.284Z,3.30
2019-03-11T15:55:24.525Z,2.73
2019-03-11T15:57:50.820Z,2.03
2019-03-11T16:00:18.785Z,2.90
2019-03-11T16:02:45.227Z,3.33
2019-03-11T16:05:11.626Z,3.10
2019-03-11T16:07:38.079Z,2.60
2019-03-11T16:10:16.259Z,2.53
2019-03-11T16:12:36.035Z,2.60
2019-03-11T16:15:03.967Z,3.33
2019-03-11T16:17:30.301Z,3.20
2019-03-11T16:19:56.556Z,3.33
2019-03-11T16:22:26.136Z,3.20
2019-03-11T16:24:50.960Z,3.00
2019-03-11T16:27:17.186Z,3.23
2019-03-11T16:29:43.465Z,2.80
2019-03-11T16:32:11.931Z,2.67
2019-03-11T16:34:38.256Z,3.23
2019-03-11T16:37:04.435Z,3.63
2019-03-11T16:39:30.651Z,2.90
2019-03-11T16:41:56.804Z,3.17
2019-03-11T16:44:23.198Z,2.60
2019-03-11T16:46:49.653Z,3.33
2019-03-11T16:49:15.955Z,3.00
2019-03-11T16:51:42.190Z,3.40
2019-03-11T16:54:08.339Z,2.70
2019-03-11T16:56:34.602Z,2.30
2019-03-11T16:59:00.857Z,2.10
2019-03-11T17:01:27.198Z,2.33
2019-03-11T17:03:53.434Z,2.87
2019-03-11T17:06:19.680Z,1.90
2019-03-11T17:08:45.915Z,2.10
2019-03-11T17:11:12.294Z,1.57
2019-03-11T17:13:38.533Z,1.70
2019-03-11T17:16:04.842Z,1.50
2019-03-11T17:18:31.113Z,1.50
2019-03-11T17:20:57.345Z,1.50
2019-03-11T17:23:23.570Z,2.10
2019-03-11T17:25:49.896Z,3.30
2019-03-11T17:28:17.207Z,2.30
2019-03-11T17:30:43.388Z,2.37
2019-03-11T17:33:09.603Z,3.23
2019-03-11T17:35:37.689Z,2.87
2019-03-11T17:38:03.961Z,6.20
2019-03-11T17:40:30.302Z,9.20
2019-03-11T17:42:57.875Z,8.67
2019-03-11T17:45:24.206Z,5.47
2019-03-11T17:47:51.604Z,2.40
2019-03-11T17:50:20.421Z,2.17
2019-03-11T17:52:46.950Z,2.17
2019-03-11T17:55:14.813Z,3.50
2019-03-11T17:57:41.225Z,2.50
2019-03-11T18:00:15.230Z,2.90
2019-03-11T18:02:41.557Z,2.50
2019-03-11T18:05:08.136Z,3.87
2019-03-11T18:07:34.377Z,3.00
2019-03-11T18:10:02.822Z,3.00
2019-03-11T18:12:31.076Z,2.93
2019-03-11T18:14:57.420Z,2.83
2019-03-11T18:17:23.661Z,2.80
2019-03-11T18:19:49.982Z,2.93
2019-03-11T18:22:16.342Z,3.23
2019-03-11T18:24:42.540Z,3.27
2019-03-11T18:27:08.833Z,3.70
2019-03-11T18:29:35.291Z,3.77
2019-03-11T18:32:02.304Z,3.90
2019-03-11T18:34:28.895Z,3.57
2019-03-11T18:36:55.031Z,3.40
2019-03-11T18:39:21.255Z,3.37
2019-03-11T18:41:47.565Z,3.37
2019-03-11T18:44:13.913Z,3.20
2019-03-11T18:46:40.145Z,3.40
2019-03-11T18:49:06.411Z,3.30
2019-03-11T18:51:32.900Z,3.60
2019-03-11T18:53:59.272Z,3.80
2019-03-11T18:56:25.606Z,3.50
2019-03-11T18:58:51.904Z,4.17
2019-03-11T19:01:18.324Z,4.00
2019-03-11T19:03:44.471Z,4.43
2019-03-11T19:06:10.860Z,4.90
2019-03-11T19:08:37.222Z,4.57
2019-03-11T19:11:03.421Z,4.93
2019-03-11T19:13:29.762Z,5.80
2019-03-11T19:15:56.012Z,5.70
2019-03-11T19:18:22.169Z,4.60
2019-03-11T19:20:48.420Z,5.13
2019-03-11T19:23:14.601Z,5.07
2019-03-11T19:25:41.707Z,5.90
2019-03-11T19:28:08.201Z,6.77
2019-03-11T19:30:34.626Z,5.37
2019-03-11T19:33:00.813Z,4.63
2019-03-11T19:35:27.246Z,4.13
2019-03-11T19:37:53.692Z,4.80
2019-03-11T19:40:21.886Z,4.33
2019-03-11T19:42:48.253Z,3.90
2019-03-11T19:45:15.361Z,3.70
2019-03-11T19:47:41.766Z,3.77
2019-03-11T19:50:10.443Z,3.57
2019-03-11T19:52:36.855Z,4.07
2019-03-11T19:55:04.231Z,3.70
2019-03-11T19:57:31.139Z,3.67
2019-03-11T19:59:57.340Z,3.80
2019-03-11T20:02:24.493Z,4.70
2019-03-11T20:04:51.179Z,4.43
2019-03-11T20:07:17.677Z,4.10
2019-03-11T20:09:43.946Z,5.10
2019-03-11T20:12:10.396Z,4.33
2019-03-11T20:14:36.569Z,4.13
2019-03-11T20:17:03.004Z,3.70
2019-03-11T20:19:29.409Z,4.00
2019-03-11T20:21:55.864Z,3.80
2019-03-11T20:24:22.255Z,4.67
2019-03-11T20:26:48.490Z,3.67
2019-03-11T20:29:14.764Z,4.40
2019-03-11T20:31:42.273Z,4.20
2019-03-11T20:34:09.078Z,4.23
2019-03-11T20:36:35.491Z,4.53
2019-03-11T20:39:01.881Z,4.30
2019-03-11T20:41:30.046Z,4.13
2019-03-11T20:43:56.482Z,3.97
2019-03-11T20:46:23.008Z,3.97
2019-03-11T20:48:49.432Z,4.30
2019-03-11T20:51:15.587Z,4.00
2019-03-11T20:53:41.760Z,4.27
2019-03-11T20:56:08.110Z,3.80
2019-03-11T20:58:34.457Z,3.67
2019-03-11T21:01:01.155Z,4.00
2019-03-11T21:03:28.847Z,3.50
2019-03-11T21:05:58.368Z,3.87
2019-03-11T21:08:24.456Z,3.90
2019-03-11T21:10:50.675Z,4.10
2019-03-11T21:13:17.147Z,4.27
2019-03-11T21:15:43.694Z,4.23
2019-03-11T21:18:10.420Z,4.73
2019-03-11T21:20:36.753Z,3.73
2019-03-11T21:23:03.278Z,3.70
2019-03-11T21:25:29.668Z,3.90
2019-03-11T21:27:56.172Z,4.03
2019-03-11T21:30:23.452Z,4.00
2019-03-11T21:32:49.823Z,4.07
2019-03-11T21:35:16.415Z,4.47
2019-03-11T21:37:42.949Z,3.90
2019-03-11T21:40:16.433Z,4.03
2019-03-11T21:42:42.818Z,4.33
2019-03-11T21:45:13.966Z,4.30
2019-03-11T21:47:40.286Z,4.57
2019-03-11T21:50:18.555Z,4.40
2019-03-11T21:52:45.139Z,4.40
2019-03-11T21:55:14.727Z,4.73
2019-03-11T21:57:41.102Z,4.53
2019-03-11T22:00:10.642Z,4.70
2019-03-11T22:02:37.629Z,4.83
2019-03-11T22:05:04.477Z,4.40
2019-03-11T22:07:30.912Z,4.97
2019-03-11T22:09:58.100Z,5.33
2019-03-11T22:12:24.476Z,5.40
2019-03-11T22:14:50.685Z,5.20
2019-03-11T22:17:16.844Z,5.43
2019-03-11T22:19:43.380Z,5.17
2019-03-11T22:22:09.630Z,4.40
2019-03-11T22:24:35.831Z,4.97
2019-03-11T22:27:02.025Z,5.23
2019-03-11T22:29:28.290Z,5.10
2019-03-11T22:31:54.421Z,5.20
2019-03-11T22:34:20.677Z,5.30
2019-03-11T22:36:46.906Z,5.27
2019-03-11T22:39:13.075Z,4.87
2019-03-11T22:41:39.393Z,4.10
2019-03-11T22:44:05.525Z,4.90
2019-03-11T22:46:31.709Z,5.00
2019-03-11T22:48:58.053Z,5.20
2019-03-11T22:51:24.350Z,4.70
2019-03-11T22:53:51.829Z,4.63
2019-03-11T22:56:17.959Z,4.73
2019-03-11T22:58:44.188Z,4.23
2019-03-11T23:01:10.719Z,4.40
2019-03-11T23:03:37.099Z,4.47
2019-03-11T23:06:03.614Z,5.07
2019-03-11T23:08:29.960Z,4.73
2019-03-11T23:10:56.226Z,4.63
2019-03-11T23:13:22.401Z,5.30
2019-03-11T23:15:50.416Z,5.00
2019-03-11T23:18:16.558Z,4.97
2019-03-11T23:20:42.939Z,5.60
2019-03-11T23:23:09.320Z,5.63
2019-03-11T23:25:35.467Z,5.47
2019-03-11T23:28:01.847Z,5.30
2019-03-11T23:30:28.103Z,5.33
2019-03-11T23:32:54.431Z,4.40
2019-03-11T23:35:20.755Z,4.60
2019-03-11T23:37:46.989Z,5.37
2019-03-11T23:40:15.543Z,6.10
2019-03-11T23:42:41.980Z,6.37
2019-03-11T23:45:10.098Z,7.40
2019-03-11T23:47:36.328Z,7.40
2019-03-11T23:50:03.739Z,7.20
2019-03-11T23:52:29.869Z,6.20
2019-03-11T23:54:55.974Z,7.60
2019-03-11T23:57:22.074Z,6.90
2019-03-11T23:59:48.216Z,6.97
